SWA907 MKJS-KBWI
Flight info
| Callsign | SWA907 |
|---|---|
| Flight time | N/A |
| Altitude | 38000 |
| Route | ELUTU5 HAWLS DCT EPSIM UM779 ZEUSS/N0456F370 Y329 ZFP/N0453F390 DCT GRUBR Y299 SEELO DCT GARIC DCT ZORDO Q111 RUKRR DCT THHMP RAVNN7 |
| Aircraft | B38M/M-SDE1FGHILORVWXY/HB1 |
Departure
| Time | 2026-04-27 00:32 |
|---|---|
| Airport | Sangster International Airport (MKJS) |
Arrival
| Time | N/A |
|---|---|
| Airport | Baltimore/Washington International Thurgood Marshall Airport (KBWI) |
| Time | Latitude | Longitude | Altitude | Speed | Heading |
|---|---|---|---|---|---|
| 2026-04-27 00:17 | 18.49920 | -77.91751 | 13 ft | 0 kts | 155° |
| 2026-04-27 00:24 | 18.49930 | -77.91755 | 13 ft | 4 kts | 157° |
| 2026-04-27 00:24 | 18.49955 | -77.91766 | 16 ft | 4 kts | 158° |
| 2026-04-27 00:25 | 18.49976 | -77.91775 | 16 ft | 4 kts | 171° |
| 2026-04-27 00:25 | 18.49995 | -77.91768 | 15 ft | 4 kts | 237° |
| 2026-04-27 00:25 | 18.50006 | -77.91744 | 13 ft | 2 kts | 245° |
| 2026-04-27 00:25 | 18.50007 | -77.91742 | 13 ft | 0 kts | 245° |
| 2026-04-27 00:29 | 18.50002 | -77.91754 | 13 ft | 4 kts | 248° |
| 2026-04-27 00:29 | 18.49982 | -77.91805 | 15 ft | 12 kts | 245° |
| 2026-04-27 00:29 | 18.49933 | -77.91918 | 13 ft | 22 kts | 245° |
| 2026-04-27 00:30 | 18.49864 | -77.92075 | 15 ft | 25 kts | 244° |
| 2026-04-27 00:30 | 18.49787 | -77.92242 | 14 ft | 26 kts | 244° |
| 2026-04-27 00:30 | 18.49741 | -77.92356 | 12 ft | 13 kts | 262° |
| 2026-04-27 00:30 | 18.49784 | -77.92419 | 13 ft | 11 kts | 337° |
| 2026-04-27 00:31 | 18.49859 | -77.92448 | 15 ft | 11 kts | 4° |
| 2026-04-27 00:31 | 18.49910 | -77.92387 | 14 ft | 14 kts | 66° |
| 2026-04-27 00:31 | 18.50044 | -77.92081 | 17 ft | 86 kts | 65° |
| 2026-04-27 00:31 | 18.50383 | -77.91301 | 14 ft | 155 kts | 65° |
| 2026-04-27 00:32 | 18.50893 | -77.90128 | 345 ft | 190 kts | 68° |
| 2026-04-27 00:32 | 18.51466 | -77.88854 | 1293 ft | 195 kts | 59° |
| 2026-04-27 00:32 | 18.52294 | -77.87718 | 2097 ft | 203 kts | 48° |
| 2026-04-27 00:32 | 18.53502 | -77.86846 | 2459 ft | 228 kts | 19° |
| 2026-04-27 00:33 | 18.55148 | -77.86746 | 2973 ft | 243 kts | 348° |
| 2026-04-27 00:33 | 18.56786 | -77.87099 | 4021 ft | 243 kts | 350° |
| 2026-04-27 00:33 | 18.58512 | -77.87402 | 4657 ft | 261 kts | 351° |
| 2026-04-27 00:33 | 18.60359 | -77.87711 | 5325 ft | 273 kts | 351° |
| 2026-04-27 00:34 | 18.62237 | -77.88027 | 6288 ft | 274 kts | 351° |
| 2026-04-27 00:34 | 18.64135 | -77.88345 | 7146 ft | 278 kts | 351° |
| 2026-04-27 00:34 | 18.66050 | -77.88667 | 8028 ft | 280 kts | 351° |
| 2026-04-27 00:34 | 18.67985 | -77.88993 | 8897 ft | 284 kts | 351° |
| 2026-04-27 00:35 | 18.69946 | -77.89323 | 9766 ft | 287 kts | 351° |
| 2026-04-27 00:35 | 18.71933 | -77.89658 | 10541 ft | 291 kts | 351° |
| 2026-04-27 00:35 | 18.73947 | -77.89998 | 11293 ft | 295 kts | 351° |
| 2026-04-27 00:35 | 18.75985 | -77.90341 | 12050 ft | 299 kts | 350° |
| 2026-04-27 00:36 | 18.78056 | -77.90690 | 12812 ft | 303 kts | 350° |
| 2026-04-27 00:36 | 18.80128 | -77.91039 | 13547 ft | 308 kts | 350° |
| 2026-04-27 00:36 | 18.82261 | -77.91398 | 14228 ft | 312 kts | 350° |
| 2026-04-27 00:36 | 18.84419 | -77.91762 | 14931 ft | 315 kts | 350° |
| 2026-04-27 00:37 | 18.86593 | -77.92129 | 15623 ft | 318 kts | 349° |
| 2026-04-27 00:37 | 18.88787 | -77.92500 | 16297 ft | 321 kts | 349° |
| 2026-04-27 00:37 | 18.91003 | -77.92874 | 16969 ft | 324 kts | 349° |
| 2026-04-27 00:37 | 18.93243 | -77.93252 | 17633 ft | 327 kts | 349° |
| 2026-04-27 00:38 | 18.95501 | -77.93634 | 18263 ft | 330 kts | 349° |
| 2026-04-27 00:38 | 18.97778 | -77.94019 | 18807 ft | 333 kts | 349° |
| 2026-04-27 00:38 | 19.00074 | -77.94407 | 19373 ft | 335 kts | 348° |
| 2026-04-27 00:38 | 19.02387 | -77.94799 | 19942 ft | 337 kts | 348° |
| 2026-04-27 00:39 | 19.04714 | -77.95193 | 20492 ft | 340 kts | 348° |
| 2026-04-27 00:39 | 19.07056 | -77.95589 | 21040 ft | 342 kts | 348° |
| 2026-04-27 00:39 | 19.09413 | -77.95988 | 21574 ft | 344 kts | 347° |
| 2026-04-27 00:39 | 19.11788 | -77.96391 | 22094 ft | 347 kts | 347° |
| 2026-04-27 00:40 | 19.14180 | -77.96796 | 22635 ft | 349 kts | 347° |
| 2026-04-27 00:40 | 19.16585 | -77.97189 | 23145 ft | 352 kts | 351° |
| 2026-04-27 00:40 | 19.19050 | -77.97350 | 23636 ft | 356 kts | 352° |
| 2026-04-27 00:40 | 19.21533 | -77.97515 | 24019 ft | 359 kts | 352° |
| 2026-04-27 00:41 | 19.24034 | -77.97691 | 24408 ft | 362 kts | 352° |
| 2026-04-27 00:41 | 19.26556 | -77.97873 | 24785 ft | 365 kts | 352° |
| 2026-04-27 00:41 | 19.29099 | -77.98060 | 25154 ft | 368 kts | 351° |
| 2026-04-27 00:41 | 19.31627 | -77.98246 | 25523 ft | 370 kts | 351° |
| 2026-04-27 00:42 | 19.34207 | -77.98437 | 25896 ft | 373 kts | 351° |
| 2026-04-27 00:42 | 19.36806 | -77.98630 | 26251 ft | 376 kts | 351° |
| 2026-04-27 00:42 | 19.39455 | -77.98827 | 26650 ft | 377 kts | 351° |
| 2026-04-27 00:42 | 19.42070 | -77.99022 | 27078 ft | 377 kts | 351° |
| 2026-04-27 00:43 | 19.44656 | -77.99214 | 27503 ft | 377 kts | 351° |
| 2026-04-27 00:43 | 19.47272 | -77.99409 | 27938 ft | 377 kts | 350° |
| 2026-04-27 00:43 | 19.49888 | -77.99604 | 28341 ft | 377 kts | 350° |
| 2026-04-27 00:43 | 19.52542 | -77.99802 | 28758 ft | 377 kts | 350° |
| 2026-04-27 00:44 | 19.55122 | -77.99995 | 29143 ft | 377 kts | 350° |
| 2026-04-27 00:44 | 19.57734 | -78.00190 | 29526 ft | 376 kts | 350° |
| 2026-04-27 00:44 | 19.60346 | -78.00385 | 29908 ft | 376 kts | 349° |
| 2026-04-27 00:44 | 19.62958 | -78.00579 | 30254 ft | 375 kts | 349° |
| 2026-04-27 00:45 | 19.65563 | -78.00774 | 30558 ft | 375 kts | 349° |
| 2026-04-27 00:45 | 19.68165 | -78.00968 | 30865 ft | 374 kts | 349° |
| 2026-04-27 00:45 | 19.70763 | -78.01162 | 31163 ft | 374 kts | 349° |
| 2026-04-27 00:45 | 19.73386 | -78.01359 | 31180 ft | 383 kts | 349° |
| 2026-04-27 00:46 | 19.78834 | -78.01766 | 31195 ft | 401 kts | 350° |
| 2026-04-27 00:46 | 19.84428 | -78.02608 | 31231 ft | 413 kts | 344° |
| 2026-04-27 00:47 | 19.90173 | -78.03678 | 31294 ft | 431 kts | 345° |
| 2026-04-27 00:47 | 19.96208 | -78.04764 | 31348 ft | 448 kts | 345° |
| 2026-04-27 00:48 | 20.02465 | -78.05886 | 31475 ft | 461 kts | 345° |
| 2026-04-27 00:48 | 20.05621 | -78.06452 | 31826 ft | 460 kts | 345° |
| 2026-04-27 00:48 | 20.08773 | -78.07018 | 32183 ft | 459 kts | 345° |
| 2026-04-27 00:49 | 20.11919 | -78.07583 | 32561 ft | 458 kts | 345° |
| 2026-04-27 00:49 | 20.15058 | -78.08147 | 32931 ft | 457 kts | 345° |
| 2026-04-27 00:49 | 20.18187 | -78.08710 | 33306 ft | 456 kts | 345° |
| 2026-04-27 00:49 | 20.21313 | -78.09272 | 33667 ft | 455 kts | 345° |
| 2026-04-27 00:50 | 20.24431 | -78.09833 | 34012 ft | 454 kts | 345° |
| 2026-04-27 00:50 | 20.30646 | -78.10951 | 34611 ft | 452 kts | 345° |
| 2026-04-27 00:50 | 20.33747 | -78.11510 | 34908 ft | 451 kts | 345° |
| 2026-04-27 00:51 | 20.36839 | -78.12067 | 35199 ft | 450 kts | 344° |
| 2026-04-27 00:51 | 20.39926 | -78.12623 | 35480 ft | 449 kts | 344° |
| 2026-04-27 00:51 | 20.43007 | -78.13179 | 35751 ft | 449 kts | 344° |
| 2026-04-27 00:51 | 20.46081 | -78.13734 | 36022 ft | 448 kts | 344° |
| 2026-04-27 00:52 | 20.49147 | -78.14287 | 36309 ft | 446 kts | 344° |
| 2026-04-27 00:52 | 20.52204 | -78.14839 | 36592 ft | 445 kts | 344° |
| 2026-04-27 00:52 | 20.55250 | -78.15389 | 36833 ft | 444 kts | 344° |
| 2026-04-27 00:52 | 20.58288 | -78.15938 | 37065 ft | 443 kts | 344° |
| 2026-04-27 00:53 | 20.61292 | -78.16481 | 37295 ft | 442 kts | 344° |
| 2026-04-27 00:53 | 20.64324 | -78.17029 | 37490 ft | 441 kts | 343° |
| 2026-04-27 00:53 | 20.67352 | -78.17577 | 37704 ft | 441 kts | 343° |
| 2026-04-27 00:53 | 20.70375 | -78.18124 | 37896 ft | 440 kts | 343° |
| 2026-04-27 00:54 | 20.73398 | -78.18672 | 37990 ft | 441 kts | 343° |
| 2026-04-27 00:54 | 20.79421 | -78.19763 | 37970 ft | 437 kts | 343° |
| 2026-04-27 00:55 | 20.85424 | -78.20851 | 37968 ft | 438 kts | 343° |
| 2026-04-27 00:55 | 20.91424 | -78.21940 | 37965 ft | 437 kts | 343° |
| 2026-04-27 00:56 | 20.97419 | -78.23029 | 37963 ft | 437 kts | 343° |
| 2026-04-27 00:56 | 21.03410 | -78.24117 | 37970 ft | 437 kts | 343° |
| 2026-04-27 00:57 | 21.09403 | -78.25208 | 37971 ft | 436 kts | 343° |
| 2026-04-27 00:57 | 21.15388 | -78.26306 | 37959 ft | 436 kts | 343° |
| 2026-04-27 00:58 | 21.21373 | -78.27405 | 37961 ft | 436 kts | 343° |
| 2026-04-27 00:58 | 21.27315 | -78.28496 | 37965 ft | 436 kts | 343° |
| 2026-04-27 00:59 | 21.33295 | -78.29595 | 37972 ft | 436 kts | 343° |
| 2026-04-27 00:59 | 21.39277 | -78.30695 | 37980 ft | 436 kts | 343° |
| 2026-04-27 01:00 | 21.45252 | -78.31795 | 37983 ft | 436 kts | 343° |
| 2026-04-27 01:00 | 21.51229 | -78.32896 | 37984 ft | 436 kts | 343° |
| 2026-04-27 01:01 | 21.57204 | -78.33999 | 37971 ft | 435 kts | 343° |
| 2026-04-27 01:01 | 21.63177 | -78.35101 | 37981 ft | 435 kts | 343° |
| 2026-04-27 01:02 | 21.69149 | -78.36204 | 37983 ft | 435 kts | 343° |
| 2026-04-27 01:02 | 21.75078 | -78.37300 | 37977 ft | 435 kts | 343° |
| 2026-04-27 01:03 | 21.81044 | -78.38404 | 37978 ft | 435 kts | 343° |
| 2026-04-27 01:03 | 21.87010 | -78.39509 | 37980 ft | 435 kts | 343° |
| 2026-04-27 01:04 | 21.92977 | -78.40615 | 37977 ft | 435 kts | 343° |
| 2026-04-27 01:04 | 21.98946 | -78.41722 | 37978 ft | 435 kts | 343° |
| 2026-04-27 01:05 | 22.04907 | -78.42829 | 37979 ft | 435 kts | 343° |
| 2026-04-27 01:05 | 22.10874 | -78.43938 | 37981 ft | 435 kts | 343° |
| 2026-04-27 01:06 | 22.16834 | -78.45046 | 37969 ft | 434 kts | 343° |
| 2026-04-27 01:06 | 22.22796 | -78.46156 | 37972 ft | 435 kts | 343° |
| 2026-04-27 01:07 | 22.28761 | -78.47267 | 37978 ft | 435 kts | 343° |
| 2026-04-27 01:07 | 22.34688 | -78.48372 | 37981 ft | 435 kts | 343° |
| 2026-04-27 01:08 | 22.40698 | -78.49494 | 37976 ft | 435 kts | 343° |
| 2026-04-27 01:08 | 22.46623 | -78.50600 | 37981 ft | 435 kts | 343° |
| 2026-04-27 01:09 | 22.52598 | -78.51717 | 37982 ft | 435 kts | 343° |
| 2026-04-27 01:09 | 22.58576 | -78.52835 | 37978 ft | 435 kts | 343° |
| 2026-04-27 01:10 | 22.63538 | -78.53763 | 37982 ft | 435 kts | 343° |
| 2026-04-27 01:10 | 22.69512 | -78.54881 | 37983 ft | 435 kts | 343° |
| 2026-04-27 01:11 | 22.75479 | -78.55999 | 37978 ft | 435 kts | 344° |
| 2026-04-27 01:11 | 22.81450 | -78.57120 | 37979 ft | 435 kts | 344° |
| 2026-04-27 01:12 | 22.87415 | -78.58241 | 37977 ft | 435 kts | 344° |
| 2026-04-27 01:12 | 22.93339 | -78.59354 | 37980 ft | 434 kts | 344° |
| 2026-04-27 01:13 | 22.99297 | -78.60476 | 37985 ft | 434 kts | 344° |
| 2026-04-27 01:13 | 23.05254 | -78.61598 | 37982 ft | 434 kts | 344° |
| 2026-04-27 01:14 | 23.11202 | -78.62720 | 37981 ft | 434 kts | 344° |
| 2026-04-27 01:14 | 23.17144 | -78.63840 | 37982 ft | 433 kts | 344° |
| 2026-04-27 01:15 | 23.23091 | -78.64964 | 37978 ft | 433 kts | 344° |
| 2026-04-27 01:15 | 23.28992 | -78.66080 | 37980 ft | 433 kts | 344° |
| 2026-04-27 01:16 | 23.34929 | -78.67203 | 37982 ft | 433 kts | 344° |
| 2026-04-27 01:16 | 23.40862 | -78.68326 | 37982 ft | 433 kts | 345° |
| 2026-04-27 01:17 | 23.46793 | -78.69451 | 37983 ft | 432 kts | 345° |
| 2026-04-27 01:17 | 23.52719 | -78.70575 | 37983 ft | 432 kts | 345° |
| 2026-04-27 01:18 | 23.58658 | -78.71703 | 37982 ft | 432 kts | 345° |
| 2026-04-27 01:18 | 23.64584 | -78.72830 | 37985 ft | 433 kts | 345° |
| 2026-04-27 01:19 | 23.70519 | -78.73959 | 37983 ft | 433 kts | 345° |
| 2026-04-27 01:19 | 23.76429 | -78.75084 | 37984 ft | 433 kts | 345° |
| 2026-04-27 01:20 | 23.82370 | -78.76216 | 37988 ft | 433 kts | 345° |
| 2026-04-27 01:20 | 23.88309 | -78.77350 | 37988 ft | 433 kts | 345° |
| 2026-04-27 01:21 | 23.94254 | -78.78485 | 37981 ft | 433 kts | 345° |
| 2026-04-27 01:21 | 24.00216 | -78.79513 | 37968 ft | 438 kts | 354° |
| 2026-04-27 01:22 | 24.06344 | -78.79326 | 37973 ft | 441 kts | 356° |
| 2026-04-27 01:22 | 24.12452 | -78.79114 | 37982 ft | 442 kts | 357° |
| 2026-04-27 01:23 | 24.18601 | -78.78884 | 37992 ft | 442 kts | 357° |
| 2026-04-27 01:23 | 24.24757 | -78.78652 | 37980 ft | 442 kts | 357° |
| 2026-04-27 01:24 | 24.30917 | -78.78419 | 37989 ft | 442 kts | 357° |
| 2026-04-27 01:24 | 24.37073 | -78.78187 | 37995 ft | 442 kts | 357° |
| 2026-04-27 01:25 | 24.43229 | -78.77954 | 37987 ft | 442 kts | 357° |
| 2026-04-27 01:25 | 24.49350 | -78.77723 | 37992 ft | 442 kts | 357° |
| 2026-04-27 01:26 | 24.55516 | -78.77489 | 37992 ft | 443 kts | 357° |
| 2026-04-27 01:26 | 24.61678 | -78.77255 | 37993 ft | 442 kts | 357° |
| 2026-04-27 01:27 | 24.67799 | -78.77023 | 37987 ft | 443 kts | 357° |
| 2026-04-27 01:27 | 24.73994 | -78.76788 | 37989 ft | 442 kts | 357° |
| 2026-04-27 01:28 | 24.80109 | -78.76555 | 37992 ft | 443 kts | 357° |
| 2026-04-27 01:28 | 24.86273 | -78.76321 | 37991 ft | 442 kts | 358° |
| 2026-04-27 01:29 | 24.92431 | -78.76086 | 37989 ft | 442 kts | 358° |
| 2026-04-27 01:29 | 24.98583 | -78.75852 | 37987 ft | 442 kts | 358° |
| 2026-04-27 01:30 | 25.04705 | -78.75618 | 37990 ft | 443 kts | 358° |
| 2026-04-27 01:30 | 25.10875 | -78.75382 | 37992 ft | 443 kts | 358° |
| 2026-04-27 01:31 | 25.17043 | -78.75146 | 37991 ft | 443 kts | 358° |
| 2026-04-27 01:31 | 25.23210 | -78.74910 | 37992 ft | 443 kts | 358° |
| 2026-04-27 01:32 | 25.29375 | -78.74674 | 37991 ft | 443 kts | 358° |
| 2026-04-27 01:32 | 25.35540 | -78.74437 | 37993 ft | 443 kts | 359° |
| 2026-04-27 01:33 | 25.41709 | -78.74201 | 37992 ft | 443 kts | 359° |
| 2026-04-27 01:33 | 25.47877 | -78.73964 | 37992 ft | 443 kts | 359° |
| 2026-04-27 01:34 | 25.54000 | -78.73728 | 37992 ft | 443 kts | 359° |
| 2026-04-27 01:34 | 25.60172 | -78.73490 | 37992 ft | 443 kts | 359° |
| 2026-04-27 01:35 | 25.66329 | -78.73253 | 37991 ft | 443 kts | 359° |
| 2026-04-27 01:35 | 25.72489 | -78.73015 | 37993 ft | 443 kts | 359° |
| 2026-04-27 01:36 | 25.78650 | -78.72777 | 37996 ft | 443 kts | 359° |
| 2026-04-27 01:36 | 25.84818 | -78.72538 | 37996 ft | 443 kts | 359° |
| 2026-04-27 01:37 | 25.90928 | -78.72301 | 37994 ft | 442 kts | 359° |
| 2026-04-27 01:37 | 25.97084 | -78.72063 | 37997 ft | 442 kts | 359° |
| 2026-04-27 01:38 | 26.03245 | -78.71824 | 37996 ft | 443 kts | 359° |
| 2026-04-27 01:38 | 26.09408 | -78.71585 | 37995 ft | 443 kts | 359° |
| 2026-04-27 01:39 | 26.15577 | -78.71345 | 37996 ft | 443 kts | 359° |
| 2026-04-27 01:39 | 26.21743 | -78.71105 | 37995 ft | 443 kts | 359° |
| 2026-04-27 01:40 | 26.27916 | -78.70864 | 37991 ft | 443 kts | 359° |
| 2026-04-27 01:40 | 26.34046 | -78.70625 | 37987 ft | 443 kts | 359° |
| 2026-04-27 01:41 | 26.40215 | -78.70384 | 37984 ft | 444 kts | 359° |
| 2026-04-27 01:41 | 26.46392 | -78.70143 | 37983 ft | 443 kts | 359° |
| 2026-04-27 01:42 | 26.52566 | -78.69901 | 37983 ft | 443 kts | 359° |
| 2026-04-27 01:42 | 26.58741 | -78.69668 | 37984 ft | 443 kts | 359° |
| 2026-04-27 01:43 | 26.64909 | -78.69438 | 37987 ft | 443 kts | 359° |
| 2026-04-27 01:43 | 26.71076 | -78.69207 | 37986 ft | 443 kts | 359° |
| 2026-04-27 01:44 | 26.77203 | -78.68978 | 37988 ft | 443 kts | 359° |
| 2026-04-27 01:44 | 26.83372 | -78.68746 | 37992 ft | 443 kts | 359° |
| 2026-04-27 01:45 | 26.89547 | -78.68514 | 37998 ft | 444 kts | 359° |
| 2026-04-27 01:45 | 26.95716 | -78.68283 | 37996 ft | 444 kts | 359° |
| 2026-04-27 01:46 | 27.01885 | -78.68050 | 37999 ft | 444 kts | 359° |
| 2026-04-27 01:46 | 27.08056 | -78.67818 | 38001 ft | 443 kts | 359° |
| 2026-04-27 01:47 | 27.14222 | -78.67586 | 37997 ft | 443 kts | 359° |
| 2026-04-27 01:47 | 27.20386 | -78.67353 | 37994 ft | 442 kts | 359° |
| 2026-04-27 01:48 | 27.26502 | -78.67122 | 37999 ft | 442 kts | 359° |
| 2026-04-27 01:48 | 27.32655 | -78.66889 | 37995 ft | 442 kts | 359° |
| 2026-04-27 01:49 | 27.38811 | -78.66656 | 37998 ft | 442 kts | 358° |
| 2026-04-27 01:49 | 27.44963 | -78.66422 | 38000 ft | 442 kts | 358° |
| 2026-04-27 01:50 | 27.51116 | -78.66189 | 37998 ft | 442 kts | 358° |
| 2026-04-27 01:50 | 27.57280 | -78.65955 | 37999 ft | 443 kts | 358° |
| 2026-04-27 01:51 | 27.63403 | -78.65722 | 37998 ft | 443 kts | 358° |
| 2026-04-27 01:51 | 27.69554 | -78.65487 | 37996 ft | 442 kts | 358° |
| 2026-04-27 01:52 | 27.75709 | -78.65252 | 37997 ft | 442 kts | 358° |
| 2026-04-27 01:52 | 27.81858 | -78.65018 | 37993 ft | 441 kts | 358° |
| 2026-04-27 01:53 | 27.87991 | -78.64784 | 37994 ft | 441 kts | 358° |
| 2026-04-27 01:53 | 27.94079 | -78.64551 | 37996 ft | 440 kts | 358° |
| 2026-04-27 01:54 | 28.00198 | -78.64316 | 37995 ft | 440 kts | 358° |
| 2026-04-27 01:54 | 28.06318 | -78.64082 | 37997 ft | 440 kts | 358° |
| 2026-04-27 01:55 | 28.12431 | -78.63847 | 37994 ft | 439 kts | 358° |
| 2026-04-27 01:55 | 28.18541 | -78.63612 | 37994 ft | 439 kts | 358° |